createdAt,value
2017-05-21T00:00:31.565Z,78
2017-05-21T00:01:32.294Z,78
2017-05-21T00:02:33.023Z,78
2017-05-21T00:03:33.751Z,78
2017-05-21T00:04:34.478Z,78
2017-05-21T00:05:35.457Z,78
2017-05-21T00:06:36.183Z,79
2017-05-21T00:07:36.911Z,79
2017-05-21T00:08:37.638Z,78
2017-05-21T00:09:38.365Z,79
2017-05-21T00:10:39.343Z,78
2017-05-21T00:11:40.069Z,79
2017-05-21T00:12:40.798Z,79
2017-05-21T00:13:41.526Z,79
2017-05-21T00:14:42.251Z,79
2017-05-21T00:15:43.226Z,79
2017-05-21T00:16:43.953Z,79
2017-05-21T00:17:44.681Z,79
2017-05-21T00:18:45.409Z,79
2017-05-21T00:19:46.132Z,79
2017-05-21T00:20:47.111Z,79
2017-05-21T00:21:47.839Z,80
2017-05-21T00:22:48.565Z,80
2017-05-21T00:23:49.293Z,80
2017-05-21T00:24:50.019Z,81
2017-05-21T00:25:50.995Z,80
2017-05-21T00:26:51.721Z,81
2017-05-21T00:27:52.450Z,81
2017-05-21T00:28:53.203Z,81
2017-05-21T00:29:53.930Z,81
2017-05-21T00:30:54.908Z,82
2017-05-21T00:31:55.636Z,82
2017-05-21T00:32:56.363Z,81
2017-05-21T00:33:57.094Z,82
2017-05-21T00:34:57.819Z,82
2017-05-21T00:35:58.799Z,82
2017-05-21T00:36:59.526Z,82
2017-05-21T00:38:00.247Z,82
2017-05-21T00:39:00.979Z,82
2017-05-21T00:40:01.726Z,82
2017-05-21T00:41:02.705Z,82
2017-05-21T00:42:03.434Z,82
2017-05-21T00:43:04.162Z,82
2017-05-21T00:44:04.891Z,83
2017-05-21T00:45:05.645Z,82
2017-05-21T00:46:06.620Z,83
2017-05-21T00:47:07.347Z,82
2017-05-21T00:48:08.075Z,83
2017-05-21T00:49:08.801Z,83
2017-05-21T00:50:09.529Z,83
2017-05-21T00:51:10.536Z,82
2017-05-21T00:52:11.287Z,83
2017-05-21T00:53:12.013Z,83
2017-05-21T00:54:12.743Z,83
2017-05-21T00:55:13.469Z,83
2017-05-21T00:56:14.445Z,83
2017-05-21T00:57:15.199Z,83
2017-05-21T00:58:15.926Z,83
2017-05-21T00:59:16.655Z,83
2017-05-21T01:00:17.382Z,83
2017-05-21T01:01:18.356Z,83
2017-05-21T01:02:19.086Z,83
2017-05-21T01:03:19.841Z,83
2017-05-21T01:04:20.569Z,84
2017-05-21T01:05:21.295Z,84
2017-05-21T01:06:22.273Z,84
2017-05-21T01:07:23.002Z,84
2017-05-21T01:08:23.729Z,84
2017-05-21T01:09:24.458Z,84
2017-05-21T01:10:25.185Z,84
2017-05-21T01:11:26.161Z,83
2017-05-21T01:12:26.890Z,84
2017-05-21T01:13:27.615Z,84
2017-05-21T01:14:28.343Z,84
2017-05-21T01:15:29.072Z,84
2017-05-21T01:16:30.048Z,84
2017-05-21T01:17:30.774Z,84
2017-05-21T01:18:31.529Z,84
2017-05-21T01:19:32.256Z,84
2017-05-21T01:20:33.006Z,85
2017-05-21T01:21:33.984Z,85
2017-05-21T01:22:34.711Z,85
2017-05-21T01:23:35.436Z,84
2017-05-21T01:24:36.165Z,84
2017-05-21T01:25:36.892Z,84
2017-05-21T01:26:37.870Z,84
2017-05-21T01:27:38.598Z,85
2017-05-21T01:28:39.323Z,84
2017-05-21T01:29:40.051Z,85
2017-05-21T01:30:40.780Z,85
2017-05-21T01:31:41.784Z,85
2017-05-21T01:32:42.511Z,85
2017-05-21T01:33:43.238Z,85
2017-05-21T01:34:43.965Z,85
2017-05-21T01:35:44.691Z,85
2017-05-21T01:36:45.670Z,85
2017-05-21T01:37:46.394Z,85
2017-05-21T01:38:47.121Z,85
2017-05-21T01:39:47.877Z,85
2017-05-21T01:40:48.631Z,85
2017-05-21T01:41:49.608Z,86
2017-05-21T01:42:50.332Z,86
2017-05-21T01:43:51.059Z,86
2017-05-21T01:44:51.786Z,86
2017-05-21T01:45:52.514Z,85
2017-05-21T01:46:53.494Z,86
2017-05-21T01:47:54.218Z,86
2017-05-21T01:48:54.945Z,86
2017-05-21T01:49:55.670Z,86
2017-05-21T01:50:56.396Z,85
2017-05-21T01:51:57.375Z,86
2017-05-21T01:52:58.101Z,86
2017-05-21T01:53:58.829Z,86
2017-05-21T01:54:59.554Z,86
2017-05-21T01:56:00.279Z,86
2017-05-21T01:57:01.255Z,85
2017-05-21T01:58:01.983Z,85
2017-05-21T01:59:02.711Z,86
2017-05-21T02:00:03.440Z,86
2017-05-21T02:01:04.165Z,86
2017-05-21T02:02:05.142Z,86
2017-05-21T02:03:06.131Z,86
2017-05-21T02:04:06.856Z,86
2017-05-21T02:05:07.581Z,86
2017-05-21T02:06:08.310Z,86
2017-05-21T02:07:09.286Z,86
2017-05-21T02:08:10.013Z,86
2017-05-21T02:09:10.740Z,86
2017-05-21T02:10:11.465Z,86
2017-05-21T02:11:12.194Z,87
2017-05-21T02:12:13.196Z,86
2017-05-21T02:13:13.925Z,86
2017-05-21T02:14:14.648Z,86
2017-05-21T02:15:15.372Z,86
2017-05-21T02:16:16.098Z,86
2017-05-21T02:17:17.101Z,86
2017-05-21T02:18:17.829Z,86
2017-05-21T02:19:18.554Z,86
2017-05-21T02:20:19.280Z,87
2017-05-21T02:21:20.007Z,87
2017-05-21T02:22:20.986Z,87
2017-05-21T02:23:21.712Z,88
2017-05-21T02:24:22.437Z,87
2017-05-21T02:25:23.164Z,88
2017-05-21T02:26:23.916Z,87
2017-05-21T02:27:24.891Z,87
2017-05-21T02:28:25.619Z,87
2017-05-21T02:29:26.347Z,87
2017-05-21T02:30:27.074Z,87
2017-05-21T02:31:27.826Z,88
2017-05-21T02:32:28.805Z,88
2017-05-21T02:33:29.562Z,87
2017-05-21T02:34:30.317Z,87
2017-05-21T02:35:31.043Z,87
2017-05-21T02:36:31.771Z,87
2017-05-21T02:37:32.751Z,87
2017-05-21T02:38:33.476Z,88
2017-05-21T02:39:34.205Z,88
2017-05-21T02:40:34.930Z,88
2017-05-21T02:41:35.656Z,89
2017-05-21T02:42:36.633Z,88
2017-05-21T02:43:37.362Z,89
2017-05-21T02:44:38.085Z,89
2017-05-21T02:45:38.814Z,89
2017-05-21T02:46:39.539Z,89
2017-05-21T02:47:40.517Z,89
2017-05-21T02:48:41.273Z,89
2017-05-21T02:49:41.997Z,88
2017-05-21T02:50:42.724Z,89
2017-05-21T02:51:43.476Z,89
2017-05-21T02:52:44.456Z,89
2017-05-21T02:53:45.182Z,88
2017-05-21T02:54:45.911Z,89
2017-05-21T02:55:46.636Z,88
2017-05-21T02:56:47.363Z,89
2017-05-21T02:57:48.342Z,88
2017-05-21T02:58:49.066Z,89
2017-05-21T02:59:49.792Z,89
2017-05-21T03:00:50.517Z,89
2017-05-21T03:01:51.243Z,90
2017-05-21T03:02:52.222Z,89
2017-05-21T03:03:52.944Z,89
2017-05-21T03:04:53.672Z,90
2017-05-21T03:05:54.399Z,90
2017-05-21T03:06:55.126Z,90
2017-05-21T03:07:56.109Z,90
2017-05-21T03:08:56.829Z,90
2017-05-21T03:09:57.555Z,90
2017-05-21T03:10:58.276Z,90
2017-05-21T03:11:59.000Z,90
2017-05-21T03:12:59.979Z,90
2017-05-21T03:14:00.707Z,90
2017-05-21T03:15:01.434Z,90
2017-05-21T03:16:02.156Z,90
2017-05-21T03:17:02.884Z,90
2017-05-21T03:18:03.860Z,90
2017-05-21T03:19:04.587Z,90
2017-05-21T03:20:05.316Z,90
2017-05-21T03:21:06.040Z,90
2017-05-21T03:22:06.761Z,90
2017-05-21T03:23:07.740Z,90
2017-05-21T03:24:08.467Z,91
2017-05-21T03:25:09.193Z,90
2017-05-21T03:26:09.921Z,90
2017-05-21T03:27:10.652Z,90
2017-05-21T03:28:11.627Z,90
2017-05-21T03:29:12.357Z,91
2017-05-21T03:30:13.083Z,91
2017-05-21T03:31:13.813Z,91
2017-05-21T03:32:14.540Z,91
2017-05-21T03:33:15.521Z,91
2017-05-21T03:34:16.246Z,91
2017-05-21T03:35:16.969Z,91
2017-05-21T03:36:17.700Z,91
2017-05-21T03:37:18.457Z,91
2017-05-21T03:38:19.436Z,91
2017-05-21T03:39:20.163Z,91
2017-05-21T03:40:20.894Z,91
2017-05-21T03:41:21.623Z,91
2017-05-21T03:42:22.353Z,91
2017-05-21T03:43:23.329Z,91
2017-05-21T03:44:24.059Z,91
2017-05-21T03:45:24.787Z,91
2017-05-21T03:46:25.517Z,91
2017-05-21T03:47:26.246Z,91
2017-05-21T03:48:27.228Z,91
2017-05-21T03:49:27.949Z,91
2017-05-21T03:50:28.677Z,91
2017-05-21T03:51:29.405Z,91
2017-05-21T03:52:30.135Z,92
2017-05-21T03:53:31.117Z,92
2017-05-21T03:54:31.846Z,91
2017-05-21T03:55:32.576Z,92
2017-05-21T03:56:33.304Z,91
2017-05-21T03:57:34.032Z,92
2017-05-21T03:58:35.011Z,91
2017-05-21T03:59:35.741Z,91
2017-05-21T04:00:36.470Z,91
2017-05-21T04:01:37.199Z,91
2017-05-21T04:02:37.925Z,91
2017-05-21T04:03:38.906Z,90
2017-05-21T04:04:39.635Z,91
2017-05-21T04:05:40.368Z,90
2017-05-21T04:06:41.097Z,90
2017-05-21T04:07:41.825Z,90
2017-05-21T04:08:42.805Z,90
2017-05-21T04:09:43.536Z,90
2017-05-21T04:10:44.267Z,90
2017-05-21T04:11:44.996Z,90
2017-05-21T04:12:45.729Z,91
2017-05-21T04:13:46.708Z,90
2017-05-21T04:14:47.464Z,90
2017-05-21T04:15:48.197Z,90
2017-05-21T04:16:48.958Z,90
2017-05-21T04:17:49.688Z,90
2017-05-21T04:18:50.669Z,90
2017-05-21T04:19:51.393Z,90
2017-05-21T04:20:52.123Z,89
2017-05-21T04:21:52.856Z,90
2017-05-21T04:22:53.587Z,90
2017-05-21T04:23:54.571Z,90
2017-05-21T04:24:55.302Z,90
2017-05-21T04:25:56.032Z,89
2017-05-21T04:26:56.762Z,89
2017-05-21T04:27:57.493Z,89
2017-05-21T04:28:58.473Z,89
2017-05-21T04:29:59.209Z,89
2017-05-21T04:30:59.935Z,89
2017-05-21T04:32:00.665Z,88
2017-05-21T04:33:01.396Z,89
2017-05-21T04:34:02.379Z,88
2017-05-21T04:35:03.137Z,89
2017-05-21T04:36:03.868Z,89
2017-05-21T04:37:04.628Z,88
2017-05-21T04:38:05.359Z,88
2017-05-21T04:39:06.340Z,88
2017-05-21T04:40:07.073Z,87
2017-05-21T04:41:07.804Z,87
2017-05-21T04:42:08.535Z,87
2017-05-21T04:43:09.267Z,87
2017-05-21T04:44:10.273Z,87
2017-05-21T04:45:11.006Z,87
2017-05-21T04:46:11.738Z,87
2017-05-21T04:47:12.468Z,87
2017-05-21T04:48:13.202Z,87
2017-05-21T04:49:14.183Z,87
2017-05-21T04:50:14.913Z,87
2017-05-21T04:51:15.669Z,87
2017-05-21T04:52:16.418Z,86
2017-05-21T04:53:17.161Z,86
2017-05-21T04:54:18.167Z,85
2017-05-21T04:55:18.897Z,85
2017-05-21T04:56:19.631Z,85
2017-05-21T04:57:20.362Z,86
2017-05-21T04:58:21.096Z,85
2017-05-21T04:59:22.081Z,85
2017-05-21T05:00:22.816Z,85
2017-05-21T05:01:23.544Z,84
2017-05-21T05:02:24.272Z,84
2017-05-21T05:03:25.008Z,84
2017-05-21T05:04:25.988Z,84
2017-05-21T05:05:26.716Z,84
2017-05-21T05:06:27.446Z,84
2017-05-21T05:07:28.175Z,83
2017-05-21T05:08:28.909Z,84
2017-05-21T05:09:29.892Z,84
2017-05-21T05:10:30.623Z,83
2017-05-21T05:11:31.354Z,84
2017-05-21T05:12:32.085Z,83
2017-05-21T05:13:32.818Z,83
2017-05-21T05:14:33.800Z,82
2017-05-21T05:15:34.536Z,82
2017-05-21T05:16:35.270Z,82
2017-05-21T05:17:35.997Z,82
2017-05-21T05:18:36.756Z,81
2017-05-21T05:19:37.767Z,81
2017-05-21T05:20:38.500Z,80
2017-05-21T05:21:39.230Z,81
2017-05-21T05:22:39.964Z,81
2017-05-21T05:23:40.695Z,81
2017-05-21T05:24:41.679Z,80
2017-05-21T05:25:42.410Z,80
2017-05-21T05:26:43.147Z,80
2017-05-21T05:27:43.874Z,79
2017-05-21T05:28:44.607Z,80
2017-05-21T05:29:45.591Z,79
2017-05-21T05:30:46.324Z,79
2017-05-21T05:31:47.058Z,79
2017-05-21T05:32:47.791Z,78
2017-05-21T05:33:48.524Z,79
2017-05-21T05:34:49.534Z,78
2017-05-21T05:35:50.264Z,78
2017-05-21T05:36:50.997Z,78
2017-05-21T05:37:51.728Z,79
2017-05-21T05:38:52.461Z,78
2017-05-21T05:39:53.444Z,78
2017-05-21T05:40:54.171Z,78
2017-05-21T05:41:54.904Z,78
2017-05-21T05:42:55.666Z,78
2017-05-21T05:43:56.400Z,78
2017-05-21T05:44:57.384Z,78
2017-05-21T05:45:58.116Z,79
2017-05-21T05:46:58.847Z,78
2017-05-21T05:47:59.584Z,79
2017-05-21T05:49:00.342Z,78
2017-05-21T05:50:01.323Z,77
2017-05-21T05:51:02.058Z,77
2017-05-21T05:52:02.793Z,77
2017-05-21T05:53:03.529Z,76
2017-05-21T05:54:04.261Z,76
2017-05-21T05:55:05.248Z,76
2017-05-21T05:56:05.979Z,75
2017-05-21T05:57:06.713Z,76
2017-05-21T05:58:07.450Z,75
2017-05-21T05:59:08.180Z,76
2017-05-21T06:00:09.164Z,74
2017-05-21T06:01:09.897Z,74
2017-05-21T06:02:10.632Z,74
2017-05-21T06:03:11.367Z,74
2017-05-21T06:04:12.100Z,74
2017-05-21T06:05:13.084Z,74
2017-05-21T06:06:13.818Z,74
2017-05-21T06:07:14.553Z,74
2017-05-21T06:08:15.285Z,74
2017-05-21T06:09:16.021Z,74
2017-05-21T06:10:17.007Z,73
2017-05-21T06:11:17.743Z,72
2017-05-21T06:12:18.478Z,72
2017-05-21T06:13:19.235Z,73
2017-05-21T06:14:19.972Z,73
2017-05-21T06:15:20.956Z,73
2017-05-21T06:16:21.689Z,73
2017-05-21T06:17:22.418Z,72
2017-05-21T06:18:23.145Z,71
2017-05-21T06:19:23.878Z,72
2017-05-21T06:20:24.862Z,72
2017-05-21T06:21:25.596Z,71
2017-05-21T06:22:26.331Z,71
2017-05-21T06:23:27.066Z,71
2017-05-21T06:24:27.801Z,71
2017-05-21T06:25:28.784Z,71
2017-05-21T06:26:29.546Z,70
2017-05-21T06:27:30.284Z,71
2017-05-21T06:28:31.016Z,71
2017-05-21T06:29:31.753Z,71
2017-05-21T06:30:32.732Z,71
2017-05-21T06:31:33.465Z,71
2017-05-21T06:32:34.203Z,71
2017-05-21T06:33:34.936Z,71
2017-05-21T06:34:35.673Z,71
2017-05-21T06:35:36.658Z,70
2017-05-21T06:36:37.395Z,71
2017-05-21T06:37:38.129Z,70
2017-05-21T06:38:38.866Z,70
2017-05-21T06:39:39.602Z,71
2017-05-21T06:40:40.589Z,71
2017-05-21T06:41:41.324Z,71
2017-05-21T06:42:42.060Z,71
2017-05-21T06:43:42.785Z,70
2017-05-21T06:44:43.521Z,71
2017-05-21T06:45:44.532Z,72
2017-05-21T06:46:45.268Z,69
2017-05-21T06:47:46.006Z,70
2017-05-21T06:48:46.739Z,69
2017-05-21T06:49:47.475Z,69
2017-05-21T06:50:48.463Z,70
2017-05-21T06:51:49.196Z,68
2017-05-21T06:52:49.934Z,69
2017-05-21T06:53:50.695Z,69
2017-05-21T06:54:51.457Z,67
2017-05-21T06:55:52.469Z,67
2017-05-21T06:56:53.205Z,67
2017-05-21T06:57:53.939Z,67
2017-05-21T06:58:54.675Z,68
2017-05-21T06:59:55.401Z,68
2017-05-21T07:00:56.390Z,68
2017-05-21T07:01:57.126Z,67
2017-05-21T07:02:57.863Z,67
2017-05-21T07:03:58.601Z,67
2017-05-21T07:04:59.338Z,67
2017-05-21T07:06:00.325Z,66
2017-05-21T07:07:01.061Z,66
2017-05-21T07:08:01.796Z,65
2017-05-21T07:09:02.531Z,66
2017-05-21T07:10:03.265Z,66
2017-05-21T07:11:04.252Z,63
2017-05-21T07:12:04.987Z,64
2017-05-21T07:13:05.724Z,63
2017-05-21T07:14:06.482Z,63
2017-05-21T07:15:07.216Z,62
2017-05-21T07:16:08.203Z,62
2017-05-21T07:17:08.938Z,62
2017-05-21T07:18:09.675Z,63
2017-05-21T07:19:10.406Z,63
2017-05-21T07:20:11.140Z,63
2017-05-21T07:21:12.127Z,63
2017-05-21T07:22:12.863Z,63
2017-05-21T07:23:13.598Z,62
2017-05-21T07:24:14.334Z,63
2017-05-21T07:25:15.069Z,61
2017-05-21T07:26:16.084Z,62
2017-05-21T07:27:16.822Z,59
2017-05-21T07:28:17.563Z,58
2017-05-21T07:29:18.330Z,58
2017-05-21T07:30:19.071Z,58
2017-05-21T07:31:20.064Z,57
2017-05-21T07:32:20.806Z,57
2017-05-21T07:33:21.548Z,55
2017-05-21T07:34:22.290Z,54
2017-05-21T07:35:23.035Z,55
2017-05-21T07:36:24.053Z,53
2017-05-21T07:37:24.794Z,54
2017-05-21T07:38:25.539Z,54
2017-05-21T07:39:26.285Z,53
2017-05-21T07:40:27.036Z,53
2017-05-21T07:41:28.035Z,54
2017-05-21T07:42:28.781Z,54
2017-05-21T07:43:29.528Z,54
2017-05-21T07:44:30.300Z,51
2017-05-21T07:45:31.035Z,51
2017-05-21T07:46:32.062Z,51
2017-05-21T07:47:32.807Z,50
2017-05-21T07:48:33.582Z,50
2017-05-21T07:49:34.332Z,48
2017-05-21T07:50:35.084Z,48
2017-05-21T07:51:36.078Z,47
2017-05-21T07:52:36.823Z,47
2017-05-21T07:53:37.574Z,48
2017-05-21T07:54:38.321Z,46
2017-05-21T07:55:39.068Z,46
2017-05-21T07:56:40.063Z,47
2017-05-21T07:57:40.811Z,46
2017-05-21T07:58:41.578Z,46
2017-05-21T07:59:42.327Z,45
2017-05-21T08:00:43.073Z,44
2017-05-21T08:01:44.072Z,44
2017-05-21T08:02:44.842Z,45
2017-05-21T08:03:45.590Z,45
2017-05-21T08:04:46.337Z,45
2017-05-21T08:05:47.085Z,46
2017-05-21T08:06:48.084Z,45
2017-05-21T08:07:48.827Z,45
2017-05-21T08:08:49.572Z,47
2017-05-21T08:09:50.320Z,44
2017-05-21T08:10:51.066Z,44
2017-05-21T08:11:52.063Z,43
2017-05-21T08:12:52.811Z,45
2017-05-21T08:13:53.559Z,46
2017-05-21T08:14:54.310Z,45
2017-05-21T08:15:55.056Z,46
2017-05-21T08:16:56.054Z,46
2017-05-21T08:17:56.793Z,45
2017-05-21T08:18:57.544Z,44
2017-05-21T08:19:58.290Z,44
2017-05-21T08:20:59.039Z,44
2017-05-21T08:22:00.064Z,43
2017-05-21T08:23:00.811Z,42
2017-05-21T08:24:01.561Z,42
2017-05-21T08:25:02.311Z,41
2017-05-21T08:26:03.058Z,40
2017-05-21T08:27:04.059Z,40
2017-05-21T08:28:04.831Z,39
2017-05-21T08:29:05.580Z,39
2017-05-21T08:30:06.329Z,39
2017-05-21T08:31:07.078Z,41
2017-05-21T08:32:08.078Z,41
2017-05-21T08:33:08.825Z,40
2017-05-21T08:34:09.573Z,41
2017-05-21T08:35:10.321Z,42
2017-05-21T08:36:11.068Z,40
2017-05-21T08:37:12.067Z,39
2017-05-21T08:38:12.836Z,39
2017-05-21T08:39:13.585Z,38
2017-05-21T08:40:14.331Z,38
2017-05-21T08:41:15.081Z,38
2017-05-21T08:42:16.079Z,39
2017-05-21T08:43:16.828Z,38
2017-05-21T08:44:17.573Z,37
2017-05-21T08:45:18.326Z,36
2017-05-21T08:46:19.073Z,39
2017-05-21T08:47:20.070Z,40
2017-05-21T08:48:20.819Z,41
2017-05-21T08:49:21.568Z,41
2017-05-21T08:50:22.316Z,41
2017-05-21T08:51:23.061Z,40
2017-05-21T08:52:24.085Z,41
2017-05-21T08:53:24.835Z,39
2017-05-21T08:54:25.586Z,38
2017-05-21T08:55:26.334Z,38
2017-05-21T08:56:27.110Z,37
2017-05-21T08:57:28.132Z,36
2017-05-21T08:58:28.881Z,37
2017-05-21T08:59:29.630Z,38
2017-05-21T09:00:30.378Z,39
2017-05-21T09:01:31.128Z,36
2017-05-21T09:02:32.129Z,35
2017-05-21T09:03:32.879Z,35
2017-05-21T09:04:33.628Z,35
2017-05-21T09:05:34.376Z,36
2017-05-21T09:06:35.124Z,34
2017-05-21T09:07:36.180Z,34
2017-05-21T09:08:36.875Z,34
2017-05-21T09:09:37.627Z,33
2017-05-21T09:10:38.376Z,33
2017-05-21T09:11:39.128Z,33
2017-05-21T09:12:40.125Z,33
2017-05-21T09:13:40.877Z,33
2017-05-21T09:14:41.629Z,33
2017-05-21T09:15:42.378Z,33
2017-05-21T09:16:43.125Z,34
2017-05-21T09:17:44.122Z,35
2017-05-21T09:18:44.866Z,35
2017-05-21T09:19:45.613Z,35
2017-05-21T09:20:46.359Z,35
2017-05-21T09:21:47.105Z,36
2017-05-21T09:22:48.103Z,35
2017-05-21T09:23:48.851Z,34
2017-05-21T09:24:49.598Z,33
2017-05-21T09:25:50.371Z,34
2017-05-21T09:26:51.127Z,33
2017-05-21T09:27:52.128Z,32
2017-05-21T09:28:52.876Z,30
2017-05-21T09:29:53.627Z,30
2017-05-21T09:30:54.382Z,30
2017-05-21T09:31:55.135Z,31
2017-05-21T09:32:56.142Z,31
2017-05-21T09:33:56.894Z,31
2017-05-21T09:34:57.651Z,31
2017-05-21T09:35:58.410Z,31
2017-05-21T09:36:59.163Z,32
2017-05-21T09:38:00.171Z,33
2017-05-21T09:39:00.923Z,31
2017-05-21T09:40:01.673Z,33
2017-05-21T09:41:02.421Z,34
2017-05-21T09:42:03.169Z,35
2017-05-21T09:43:04.167Z,38
2017-05-21T09:44:04.913Z,36
2017-05-21T09:45:05.661Z,35
2017-05-21T09:46:06.410Z,36
2017-05-21T09:47:07.163Z,36
2017-05-21T09:48:08.167Z,34
2017-05-21T09:49:08.920Z,34
2017-05-21T09:50:09.676Z,33
2017-05-21T09:51:10.436Z,31
2017-05-21T09:52:11.195Z,30
2017-05-21T09:53:12.203Z,29
2017-05-21T09:54:12.985Z,28
2017-05-21T09:55:13.744Z,29
2017-05-21T09:56:14.500Z,27
2017-05-21T09:57:15.255Z,28
2017-05-21T09:58:16.254Z,29
2017-05-21T09:59:17.008Z,29
2017-05-21T10:00:17.756Z,29
2017-05-21T10:01:18.508Z,31
2017-05-21T10:02:19.278Z,30
2017-05-21T10:03:20.276Z,30
2017-05-21T10:04:21.022Z,29
2017-05-21T10:05:21.796Z,30
2017-05-21T10:06:22.541Z,31
2017-05-21T10:07:23.290Z,31
2017-05-21T10:08:24.288Z,32
2017-05-21T10:09:25.030Z,32
2017-05-21T10:10:25.778Z,34
2017-05-21T10:11:26.550Z,34
2017-05-21T10:12:27.295Z,32
2017-05-21T10:13:28.294Z,31
2017-05-21T10:14:29.041Z,32
2017-05-21T10:15:29.789Z,32
2017-05-21T10:16:30.541Z,31
2017-05-21T10:17:31.289Z,29
2017-05-21T10:18:32.290Z,28
2017-05-21T10:19:33.053Z,27
2017-05-21T10:20:33.805Z,26
2017-05-21T10:21:34.559Z,27
2017-05-21T10:22:35.316Z,27
2017-05-21T10:23:36.326Z,26
2017-05-21T10:24:37.089Z,26
2017-05-21T10:25:37.872Z,25
2017-05-21T10:26:38.643Z,25
2017-05-21T10:27:39.401Z,25
2017-05-21T10:28:40.435Z,26
2017-05-21T10:29:41.197Z,24
2017-05-21T10:30:41.952Z,24
2017-05-21T10:31:42.709Z,25
2017-05-21T10:32:43.467Z,26
2017-05-21T10:33:44.474Z,26
2017-05-21T10:34:45.231Z,27
2017-05-21T10:35:45.992Z,28
2017-05-21T10:36:46.746Z,28
2017-05-21T10:37:47.499Z,27
2017-05-21T10:38:48.507Z,28
2017-05-21T10:39:49.268Z,27
2017-05-21T10:40:50.027Z,27
2017-05-21T10:41:50.811Z,27
2017-05-21T10:42:51.566Z,28
2017-05-21T10:43:52.577Z,27
2017-05-21T10:44:53.330Z,27
2017-05-21T10:45:54.091Z,27
2017-05-21T10:46:54.848Z,26
2017-05-21T10:47:55.610Z,25
2017-05-21T10:48:56.615Z,25
2017-05-21T10:49:57.376Z,25
2017-05-21T10:50:58.162Z,27
2017-05-21T10:51:58.918Z,26
2017-05-21T10:52:59.677Z,26
2017-05-21T10:54:00.684Z,26
2017-05-21T10:55:01.436Z,27
2017-05-21T10:56:02.192Z,26
2017-05-21T10:57:02.947Z,24
2017-05-21T10:58:03.703Z,25
2017-05-21T10:59:04.716Z,24
2017-05-21T11:00:05.475Z,24
2017-05-21T11:01:06.234Z,23
2017-05-21T11:02:06.989Z,23
2017-05-21T11:03:07.748Z,23
2017-05-21T11:04:08.752Z,22
2017-05-21T11:05:09.510Z,25
2017-05-21T11:06:10.264Z,22
2017-05-21T11:07:11.023Z,22
2017-05-21T11:08:11.784Z,22
2017-05-21T11:09:12.818Z,22
2017-05-21T11:10:13.574Z,24
2017-05-21T11:11:14.335Z,25
2017-05-21T11:12:15.092Z,26
2017-05-21T11:13:15.850Z,26
2017-05-21T11:14:16.861Z,24
2017-05-21T11:15:17.622Z,24
2017-05-21T11:16:18.380Z,23
2017-05-21T11:17:19.132Z,24
2017-05-21T11:18:19.892Z,24
2017-05-21T11:19:20.902Z,22
2017-05-21T11:20:21.717Z,22
2017-05-21T11:21:22.417Z,24
2017-05-21T11:22:23.180Z,24
2017-05-21T11:23:23.934Z,23
2017-05-21T11:24:24.943Z,24
2017-05-21T11:25:25.703Z,24
2017-05-21T11:26:26.457Z,24
2017-05-21T11:27:27.217Z,23
2017-05-21T11:28:27.997Z,22
2017-05-21T11:29:29.002Z,22
2017-05-21T11:30:29.754Z,21
2017-05-21T11:31:30.510Z,20
2017-05-21T11:32:31.266Z,20
2017-05-21T11:33:32.022Z,20
2017-05-21T11:34:33.029Z,21
2017-05-21T11:35:33.785Z,21
2017-05-21T11:36:34.545Z,21
2017-05-21T11:37:35.309Z,21
2017-05-21T11:38:36.063Z,21
2017-05-21T11:39:37.065Z,21
2017-05-21T11:40:37.825Z,21
2017-05-21T11:41:38.578Z,23
2017-05-21T11:42:39.335Z,22
2017-05-21T11:43:40.090Z,23
2017-05-21T11:44:41.095Z,23
2017-05-21T11:45:41.852Z,22
2017-05-21T11:46:42.610Z,24
2017-05-21T11:47:43.390Z,23
2017-05-21T11:48:44.143Z,23
2017-05-21T11:49:45.147Z,25
2017-05-21T11:50:45.904Z,26
2017-05-21T11:51:46.657Z,26
2017-05-21T11:52:47.413Z,26
2017-05-21T11:53:48.172Z,25
2017-05-21T11:54:49.176Z,26
2017-05-21T11:55:49.932Z,25
2017-05-21T11:56:50.684Z,26
2017-05-21T11:57:51.443Z,26
2017-05-21T11:58:52.198Z,27
2017-05-21T11:59:53.197Z,25
2017-05-21T12:00:53.939Z,27
2017-05-21T12:01:54.693Z,28
2017-05-21T12:02:55.441Z,27
2017-05-21T12:03:56.196Z,26
2017-05-21T12:04:57.206Z,26
2017-05-21T12:05:57.964Z,25
2017-05-21T12:06:58.724Z,24
2017-05-21T12:07:59.483Z,23
2017-05-21T12:09:00.244Z,23
2017-05-21T12:10:01.252Z,24
2017-05-21T12:11:02.007Z,23
2017-05-21T12:12:02.791Z,23
2017-05-21T12:13:03.546Z,22
2017-05-21T12:14:04.302Z,23
2017-05-21T12:15:05.332Z,24
2017-05-21T12:16:06.118Z,22
2017-05-21T12:17:06.874Z,21
2017-05-21T12:18:07.632Z,20
2017-05-21T12:19:08.391Z,21
2017-05-21T12:20:09.398Z,21
2017-05-21T12:21:10.153Z,20
2017-05-21T12:22:10.910Z,21
2017-05-21T12:23:11.669Z,20
2017-05-21T12:24:12.420Z,20
2017-05-21T12:25:13.428Z,20
2017-05-21T12:26:14.181Z,20
2017-05-21T12:27:14.964Z,19
2017-05-21T12:28:15.720Z,19
2017-05-21T12:29:16.478Z,21
2017-05-21T12:30:17.520Z,21
2017-05-21T12:31:18.277Z,21
2017-05-21T12:32:19.033Z,21
2017-05-21T12:33:19.790Z,20
2017-05-21T12:34:20.545Z,19
2017-05-21T12:35:21.554Z,20
2017-05-21T12:36:22.309Z,20
2017-05-21T12:37:23.068Z,21
2017-05-21T12:38:23.823Z,20
2017-05-21T12:39:24.577Z,22
2017-05-21T12:40:25.583Z,23
2017-05-21T12:41:26.337Z,21
2017-05-21T12:42:27.120Z,21
2017-05-21T12:43:27.875Z,20
2017-05-21T12:44:28.629Z,20
2017-05-21T12:45:29.628Z,20
2017-05-21T12:46:30.390Z,18
2017-05-21T12:47:31.147Z,17
2017-05-21T12:48:31.907Z,16
2017-05-21T12:49:32.665Z,18
2017-05-21T12:50:33.676Z,17
2017-05-21T12:51:34.430Z,18
2017-05-21T12:52:35.192Z,18
2017-05-21T12:53:35.972Z,19
2017-05-21T12:54:36.729Z,20
2017-05-21T12:55:37.735Z,20
2017-05-21T12:56:38.487Z,20
2017-05-21T12:57:39.243Z,21
2017-05-21T12:58:39.994Z,21
2017-05-21T12:59:40.754Z,20
2017-05-21T13:00:41.789Z,21
2017-05-21T13:01:42.542Z,19
2017-05-21T13:02:43.299Z,19
2017-05-21T13:03:44.052Z,20
2017-05-21T13:04:44.811Z,19
2017-05-21T13:05:45.821Z,18
2017-05-21T13:06:46.581Z,20
2017-05-21T13:07:47.337Z,21
2017-05-21T13:08:48.093Z,20
2017-05-21T13:09:48.852Z,18
2017-05-21T13:10:49.862Z,19
2017-05-21T13:11:50.615Z,18
2017-05-21T13:12:51.372Z,17
2017-05-21T13:13:52.139Z,18
2017-05-21T13:14:52.887Z,18
2017-05-21T13:15:53.895Z,18
2017-05-21T13:16:54.651Z,17
2017-05-21T13:17:55.412Z,17
2017-05-21T13:18:56.170Z,17
2017-05-21T13:19:56.931Z,16
2017-05-21T13:20:57.932Z,17
2017-05-21T13:21:58.689Z,16
2017-05-21T13:22:59.442Z,16
2017-05-21T13:24:00.206Z,17
2017-05-21T13:25:00.963Z,18
2017-05-21T13:26:01.971Z,19
2017-05-21T13:27:02.729Z,19
2017-05-21T13:28:03.498Z,20
2017-05-21T13:29:04.273Z,20
2017-05-21T13:30:05.033Z,21
2017-05-21T13:31:06.045Z,20
2017-05-21T13:32:06.802Z,21
2017-05-21T13:33:07.557Z,21
2017-05-21T13:34:08.338Z,21
2017-05-21T13:35:09.120Z,20
2017-05-21T13:36:10.155Z,20
2017-05-21T13:37:10.914Z,20
2017-05-21T13:38:11.668Z,20
2017-05-21T13:39:12.425Z,20
2017-05-21T13:40:13.181Z,20
2017-05-21T13:41:14.189Z,20
2017-05-21T13:42:14.973Z,20
2017-05-21T13:43:15.737Z,19
2017-05-21T13:44:16.483Z,19
2017-05-21T13:45:17.239Z,19
2017-05-21T13:46:18.246Z,19
2017-05-21T13:47:19.050Z,19
2017-05-21T13:48:19.756Z,19
2017-05-21T13:49:20.511Z,18
2017-05-21T13:50:21.272Z,19
2017-05-21T13:51:22.281Z,20
2017-05-21T13:52:23.038Z,21
2017-05-21T13:53:23.797Z,20
2017-05-21T13:54:24.552Z,19
2017-05-21T13:55:25.307Z,20
2017-05-21T13:56:26.315Z,19
2017-05-21T13:57:27.072Z,18
2017-05-21T13:58:27.829Z,18
2017-05-21T13:59:28.585Z,19
2017-05-21T14:00:29.342Z,20
2017-05-21T14:01:30.386Z,21
2017-05-21T14:02:31.140Z,19
2017-05-21T14:03:31.897Z,20
2017-05-21T14:04:32.655Z,20
2017-05-21T14:05:33.409Z,22
2017-05-21T14:06:34.411Z,22
2017-05-21T14:07:35.194Z,23
2017-05-21T14:08:35.976Z,22
2017-05-21T14:09:36.760Z,24
2017-05-21T14:10:37.514Z,23
2017-05-21T14:11:38.514Z,24
2017-05-21T14:12:39.267Z,24
2017-05-21T14:13:40.039Z,24
2017-05-21T14:14:40.786Z,24
2017-05-21T14:15:41.531Z,23
2017-05-21T14:16:42.527Z,23
2017-05-21T14:17:43.276Z,22
2017-05-21T14:18:44.046Z,23
2017-05-21T14:19:44.790Z,24
2017-05-21T14:20:45.534Z,23
2017-05-21T14:21:46.527Z,24
2017-05-21T14:22:47.276Z,26
2017-05-21T14:23:48.022Z,25
2017-05-21T14:24:48.767Z,26
2017-05-21T14:25:49.510Z,26
2017-05-21T14:26:50.505Z,26